Time;durP1;ratioP1;P1;durP2;ratioP2;P2;SDS_P1;SDS_P2;PMS_P1;PMS_P2;Temp;Humidity;BMP_temperature;BMP_pressure;BME280_temperature;BME280_humidity;BME280_pressure;Samples;Min_cycle;Max_cycle;Signal;HPM_P1;HPM_P2
2021/09/24 00:01:25;;;;;;;6.97;6.27;;;13.40;99.90;;;;;;5077374;28;20614;-66
2021/09/24 00:03:52;;;;;;;5.83;5.33;;;13.30;99.90;;;;;;5077447;28;20625;-66
2021/09/24 00:06:18;;;;;;;6.87;6.03;;;13.30;99.90;;;;;;5076878;28;20597;-66
2021/09/24 00:08:44;;;;;;;6.57;6.00;;;13.30;99.90;;;;;;5077071;28;20618;-66
2021/09/24 00:11:11;;;;;;;5.70;5.10;;;13.20;99.90;;;;;;5076682;28;20600;-66
2021/09/24 00:13:37;;;;;;;5.90;5.30;;;13.20;99.90;;;;;;5076764;28;21195;-66
2021/09/24 00:16:04;;;;;;;7.28;6.38;;;13.10;99.90;;;;;;5075619;28;20618;-66
2021/09/24 00:18:30;;;;;;;7.32;6.60;;;13.00;99.90;;;;;;5076736;28;20699;-66
2021/09/24 00:20:57;;;;;;;8.65;6.78;;;12.90;99.90;;;;;;5076539;28;20196;-66
2021/09/24 00:23:24;;;;;;;6.70;6.05;;;12.80;99.90;;;;;;5076680;28;20196;-65
2021/09/24 00:25:51;;;;;;;8.10;7.30;;;12.70;99.90;;;;;;5076909;28;20200;-65
2021/09/24 00:28:17;;;;;;;6.20;5.68;;;12.60;99.90;;;;;;5076817;28;20204;-65
2021/09/24 00:30:44;;;;;;;8.25;7.50;;;12.50;99.90;;;;;;5076361;28;20207;-65
2021/09/24 00:33:10;;;;;;;7.15;6.45;;;12.50;99.90;;;;;;5076198;28;20273;-66
2021/09/24 00:35:36;;;;;;;7.70;6.88;;;12.40;99.90;;;;;;5076461;28;20643;-65
2021/09/24 00:38:03;;;;;;;7.75;6.97;;;12.30;99.90;;;;;;5076276;28;20196;-65
2021/09/24 00:40:32;;;;;;;7.75;6.95;;;12.30;99.90;;;;;;5076624;28;20207;-65
2021/09/24 00:42:58;;;;;;;7.65;6.95;;;12.30;99.90;;;;;;5075917;28;20204;-65
2021/09/24 00:45:25;;;;;;;7.82;7.13;;;12.30;99.90;;;;;;5076201;28;20185;-65
2021/09/24 00:47:51;;;;;;;6.97;6.30;;;12.20;99.90;;;;;;5075995;28;20208;-65
2021/09/24 00:50:18;;;;;;;8.20;6.95;;;12.20;99.90;;;;;;5076178;28;20208;-65
2021/09/24 00:52:44;;;;;;;7.25;6.65;;;12.20;99.90;;;;;;5074937;28;20700;-65
2021/09/24 00:55:10;;;;;;;12.75;7.82;;;12.10;99.90;;;;;;5076130;28;20192;-65
2021/09/24 00:57:37;;;;;;;7.40;6.80;;;12.00;99.90;;;;;;5075910;28;20184;-65
2021/09/24 01:00:05;;;;;;;7.05;6.45;;;12.00;99.90;;;;;;5076093;28;20188;-65
2021/09/24 01:02:32;;;;;;;8.45;7.55;;;11.90;99.90;;;;;;5075798;28;20192;-65
2021/09/24 01:04:58;;;;;;;8.52;6.82;;;11.90;99.90;;;;;;5075828;28;20203;-65
2021/09/24 01:07:25;;;;;;;8.60;6.97;;;11.90;99.90;;;;;;5075260;28;20640;-65
2021/09/24 01:09:51;;;;;;;8.15;7.13;;;11.80;99.90;;;;;;5075655;28;20196;-65
2021/09/24 01:12:19;;;;;;;8.57;7.70;;;11.80;99.90;;;;;;5075915;28;20200;-65
2021/09/24 01:14:45;;;;;;;8.38;7.57;;;11.80;99.90;;;;;;5075793;28;20212;-65
2021/09/24 01:17:11;;;;;;;8.85;7.38;;;11.80;99.90;;;;;;5075470;28;20228;-65
2021/09/24 01:19:37;;;;;;;7.57;6.60;;;11.80;99.90;;;;;;5075619;28;20192;-65
2021/09/24 01:22:07;;;;;;;7.88;7.13;;;11.80;99.90;;;;;;5075251;28;20200;-65
2021/09/24 01:24:33;;;;;;;7.85;6.85;;;11.70;99.90;;;;;;5075682;28;20200;-65
2021/09/24 01:27:01;;;;;;;10.10;7.28;;;11.70;99.90;;;;;;5075697;28;20210;-66
2021/09/24 01:29:28;;;;;;;7.80;6.97;;;11.70;99.90;;;;;;5074717;28;20208;-65
2021/09/24 01:31:55;;;;;;;7.90;7.20;;;11.70;99.90;;;;;;5075881;28;20208;-65
2021/09/24 01:34:21;;;;;;;9.48;6.93;;;11.70;99.90;;;;;;5074877;28;20223;-65
2021/09/24 01:36:47;;;;;;;8.00;6.50;;;11.70;99.90;;;;;;5075218;28;20214;-65
2021/09/24 01:39:13;;;;;;;9.13;7.82;;;11.70;99.90;;;;;;5074215;28;20204;-66
2021/09/24 01:41:43;;;;;;;7.68;6.70;;;11.80;99.90;;;;;;5075343;28;20569;-65
2021/09/24 01:44:10;;;;;;;8.23;7.43;;;11.80;99.90;;;;;;5075322;28;20204;-65
2021/09/24 01:46:38;;;;;;;8.40;7.18;;;11.80;99.90;;;;;;5074610;28;20219;-65
2021/09/24 01:49:05;;;;;;;8.93;7.20;;;11.80;99.90;;;;;;5074992;28;20204;-65
2021/09/24 01:51:36;;;;;;;19.23;8.35;;;11.80;99.90;;;;;;5074910;28;20219;-65
2021/09/24 01:54:03;;;;;;;8.55;7.75;;;11.80;99.90;;;;;;5074678;28;20200;-65
2021/09/24 01:56:30;;;;;;;9.48;8.68;;;11.80;99.90;;;;;;5074548;28;20241;-65
2021/09/24 01:58:59;;;;;;;8.68;7.88;;;11.80;99.90;;;;;;5074428;28;20204;-65
2021/09/24 02:01:26;;;;;;;9.20;8.32;;;11.70;99.90;;;;;;5074502;28;20191;-65
2021/09/24 02:03:52;;;;;;;9.30;8.18;;;11.70;99.90;;;;;;5074481;28;20203;-65
2021/09/24 02:06:18;;;;;;;8.88;7.53;;;11.70;99.90;;;;;;5074429;28;20208;-66
2021/09/24 02:08:44;;;;;;;8.25;7.45;;;11.70;99.90;;;;;;5074385;28;20188;-66
2021/09/24 02:11:11;;;;;;;15.18;8.52;;;11.70;99.90;;;;;;5074215;28;20195;-66
2021/09/24 02:13:41;;;;;;;13.05;7.93;;;11.70;99.90;;;;;;5074056;28;20228;-66
2021/09/24 02:16:10;;;;;;;12.73;8.77;;;11.70;99.90;;;;;;5074175;28;20196;-66
2021/09/24 02:18:38;;;;;;;10.65;9.40;;;11.80;99.90;;;;;;5073030;28;20231;-66
2021/09/24 02:21:05;;;;;;;9.13;8.23;;;11.80;99.90;;;;;;5074003;28;20199;-64
2021/09/24 02:23:31;;;;;;;14.63;8.57;;;11.70;99.90;;;;;;5072552;28;20216;-65
2021/09/24 02:25:58;;;;;;;7.82;7.20;;;11.70;99.90;;;;;;5074008;28;20682;-65
2021/09/24 02:28:24;;;;;;;10.98;8.70;;;11.60;99.90;;;;;;5073916;28;20195;-65
2021/09/24 02:30:52;;;;;;;9.75;8.70;;;11.60;99.90;;;;;;5073760;28;20184;-65
2021/09/24 02:33:19;;;;;;;11.20;9.75;;;11.50;99.90;;;;;;5073732;28;20192;-64
2021/09/24 02:35:46;;;;;;;16.17;9.45;;;11.50;99.90;;;;;;5073836;28;20200;-64
2021/09/24 02:38:12;;;;;;;20.88;11.45;;;11.50;99.90;;;;;;5073793;28;20198;-64
2021/09/24 02:40:39;;;;;;;9.88;8.80;;;11.50;99.90;;;;;;5073661;28;20260;-64
2021/09/24 02:43:07;;;;;;;10.15;8.57;;;11.40;99.90;;;;;;5073617;28;20651;-64
2021/09/24 02:45:33;;;;;;;12.73;7.85;;;11.40;99.90;;;;;;5073596;28;20199;-64
2021/09/24 02:47:59;;;;;;;11.45;8.57;;;11.50;99.90;;;;;;5073468;28;20266;-64
2021/09/24 02:50:25;;;;;;;9.82;7.68;;;11.40;99.90;;;;;;5073496;28;20200;-66
2021/09/24 02:52:52;;;;;;;9.73;8.40;;;11.40;99.90;;;;;;5073871;28;20191;-64
2021/09/24 02:55:20;;;;;;;14.55;8.30;;;11.40;99.90;;;;;;5073444;28;20663;-64
2021/09/24 02:57:46;;;;;;;12.30;9.73;;;11.30;99.90;;;;;;5073319;28;20644;-64
2021/09/24 03:00:14;;;;;;;10.75;9.57;;;11.30;99.90;;;;;;5073787;28;20196;-64
2021/09/24 03:02:40;;;;;;;10.88;8.90;;;11.30;99.90;;;;;;5073114;28;20199;-64
2021/09/24 03:05:07;;;;;;;8.65;7.60;;;11.30;99.90;;;;;;5072857;28;20199;-64
2021/09/24 03:07:33;;;;;;;10.77;8.70;;;11.30;99.90;;;;;;5073325;28;20573;-64
2021/09/24 03:10:00;;;;;;;10.25;8.75;;;11.20;99.90;;;;;;5072861;28;20196;-65
2021/09/24 03:12:26;;;;;;;9.43;8.50;;;11.20;99.90;;;;;;5072602;28;20203;-65
2021/09/24 03:14:53;;;;;;;9.90;8.07;;;11.30;99.90;;;;;;5072589;28;20223;-64
2021/09/24 03:17:21;;;;;;;10.55;9.30;;;11.30;99.90;;;;;;5072826;28;20230;-64
2021/09/24 03:19:47;;;;;;;8.77;7.88;;;11.30;99.90;;;;;;5072831;28;20200;-64
2021/09/24 03:22:14;;;;;;;8.88;7.82;;;11.20;99.90;;;;;;5073091;28;20226;-65
2021/09/24 03:24:41;;;;;;;9.85;8.85;;;11.20;99.90;;;;;;5073132;28;20647;-65
2021/09/24 03:27:08;;;;;;;9.27;8.38;;;11.10;99.90;;;;;;5073185;28;20207;-65
2021/09/24 03:29:34;;;;;;;11.70;8.75;;;11.10;99.90;;;;;;5072790;28;20203;-65
2021/09/24 03:32:01;;;;;;;10.85;8.10;;;11.10;99.90;;;;;;5072742;28;20203;-65
2021/09/24 03:34:27;;;;;;;10.82;8.60;;;11.10;99.90;;;;;;5073151;28;20687;-65
2021/09/24 03:36:54;;;;;;;8.70;7.88;;;11.10;99.90;;;;;;5072756;28;20193;-65
2021/09/24 03:39:20;;;;;;;9.73;8.77;;;11.00;99.90;;;;;;5072925;28;20192;-65
2021/09/24 03:41:46;;;;;;;8.88;8.07;;;11.00;99.90;;;;;;5073079;28;20222;-65
2021/09/24 03:44:13;;;;;;;11.10;9.20;;;11.10;99.90;;;;;;5073291;28;20504;-64
2021/09/24 03:46:40;;;;;;;11.10;8.60;;;11.00;99.90;;;;;;5073223;28;20599;-64
2021/09/24 03:49:07;;;;;;;12.35;10.15;;;10.90;99.90;;;;;;5072855;28;20199;-64
2021/09/24 03:51:33;;;;;;;14.35;9.82;;;10.90;99.90;;;;;;5072845;28;20195;-64
2021/09/24 03:53:59;;;;;;;15.68;8.95;;;10.90;99.90;;;;;;5072890;28;20223;-64
2021/09/24 03:56:26;;;;;;;9.48;8.30;;;10.90;99.90;;;;;;5073036;28;20203;-64
2021/09/24 03:58:53;;;;;;;9.75;8.73;;;10.80;99.90;;;;;;5072737;28;20196;-64
2021/09/24 04:01:20;;;;;;;8.85;8.00;;;10.90;99.90;;;;;;5072787;28;20199;-64
2021/09/24 04:03:47;;;;;;;10.73;9.00;;;10.90;99.90;;;;;;5071395;28;20638;-64
2021/09/24 04:06:13;;;;;;;10.13;8.18;;;10.90;99.90;;;;;;5072612;28;20208;-64
2021/09/24 04:08:40;;;;;;;12.50;9.63;;;10.90;99.90;;;;;;5071475;28;20219;-64
2021/09/24 04:11:06;;;;;;;10.63;8.10;;;11.00;99.90;;;;;;5073005;28;20212;-64
2021/09/24 04:13:32;;;;;;;9.48;8.57;;;11.00;99.90;;;;;;5072552;28;20210;-65
2021/09/24 04:15:59;;;;;;;10.07;8.23;;;11.00;99.90;;;;;;5072728;28;20188;-64
2021/09/24 04:18:26;;;;;;;13.80;8.50;;;10.90;99.90;;;;;;5072605;28;20258;-64
2021/09/24 04:20:54;;;;;;;9.70;8.75;;;10.90;99.90;;;;;;5072505;28;20210;-64
2021/09/24 04:23:21;;;;;;;10.43;9.32;;;10.90;99.90;;;;;;5072722;28;20192;-64
2021/09/24 04:25:47;;;;;;;9.10;8.10;;;10.90;99.90;;;;;;5072577;28;20204;-64
2021/09/24 04:28:14;;;;;;;10.68;8.88;;;10.90;99.90;;;;;;5072920;28;20643;-64
2021/09/24 04:30:40;;;;;;;10.10;8.52;;;10.90;99.90;;;;;;5072697;28;20184;-64
2021/09/24 04:33:06;;;;;;;11.43;9.45;;;10.90;99.90;;;;;;5072781;28;20208;-64
2021/09/24 04:35:33;;;;;;;10.13;9.07;;;11.00;99.90;;;;;;5072327;28;20294;-65
2021/09/24 04:38:00;;;;;;;9.98;9.00;;;11.00;99.90;;;;;;5072426;28;20192;-64
2021/09/24 04:40:27;;;;;;;12.18;8.70;;;11.00;99.90;;;;;;5072862;28;20662;-64
2021/09/24 04:42:53;;;;;;;13.43;9.95;;;11.00;99.90;;;;;;5074950;28;20254;-64
2021/09/24 04:45:20;;;;;;;13.10;9.65;;;11.00;99.90;;;;;;5076228;28;20614;-65
2021/09/24 04:47:46;;;;;;;10.70;9.60;;;11.00;99.90;;;;;;5075786;28;20231;-65
2021/09/24 04:50:13;;;;;;;9.48;8.50;;;11.00;99.90;;;;;;5075691;28;20192;-65
2021/09/24 04:52:39;;;;;;;9.43;8.43;;;11.00;99.90;;;;;;5076129;28;20674;-65
2021/09/24 04:55:08;;;;;;;8.82;7.90;;;11.00;99.90;;;;;;5075747;28;20667;-65
2021/09/24 04:57:36;;;;;;;11.73;9.27;;;11.00;99.90;;;;;;5075917;28;20196;-65
2021/09/24 05:00:06;;;;;;;9.80;8.90;;;11.00;99.90;;;;;;5075584;28;20199;-66
2021/09/24 05:02:33;;;;;;;10.43;9.23;;;10.90;99.90;;;;;;5075524;28;20265;-65
2021/09/24 05:04:59;;;;;;;10.05;9.02;;;10.90;99.90;;;;;;5075717;28;20199;-65
2021/09/24 05:07:26;;;;;;;9.98;7.85;;;10.90;99.90;;;;;;5075510;28;20699;-65
2021/09/24 05:09:53;;;;;;;10.75;9.65;;;10.80;99.90;;;;;;5075456;28;20271;-65
2021/09/24 05:12:19;;;;;;;10.48;8.85;;;10.80;99.90;;;;;;5075729;28;20203;-65
2021/09/24 05:14:46;;;;;;;10.27;8.60;;;10.80;99.90;;;;;;5075482;28;20228;-65
2021/09/24 05:17:13;;;;;;;8.88;7.97;;;10.80;99.90;;;;;;5075368;28;20236;-65
2021/09/24 05:19:39;;;;;;;9.55;8.05;;;10.80;99.90;;;;;;5075498;28;20223;-65
2021/09/24 05:22:06;;;;;;;10.95;9.00;;;10.90;99.90;;;;;;5075311;28;20191;-65
2021/09/24 05:24:32;;;;;;;18.23;8.57;;;10.90;99.90;;;;;;5075453;28;20238;-65
2021/09/24 05:27:00;;;;;;;10.32;9.25;;;10.80;99.90;;;;;;5075098;28;20199;-65
2021/09/24 05:29:29;;;;;;;9.88;8.93;;;10.90;99.90;;;;;;5075177;28;20690;-65
2021/09/24 05:31:56;;;;;;;12.38;8.43;;;11.00;99.90;;;;;;5075093;28;20354;-66
2021/09/24 05:34:25;;;;;;;10.32;8.23;;;11.00;99.90;;;;;;5074806;28;20219;-65
2021/09/24 05:36:52;;;;;;;9.73;8.82;;;11.00;99.90;;;;;;5074656;28;20230;-65
2021/09/24 05:39:19;;;;;;;8.90;7.97;;;11.00;99.90;;;;;;5075270;28;20200;-65
2021/09/24 05:41:45;;;;;;;10.60;8.32;;;11.00;99.90;;;;;;5074940;28;20666;-65
2021/09/24 05:44:12;;;;;;;12.85;8.00;;;11.00;99.90;;;;;;5074836;28;20655;-65
2021/09/24 05:46:41;;;;;;;11.70;9.02;;;11.00;99.90;;;;;;5075003;28;20541;-65
2021/09/24 05:49:08;;;;;;;10.52;8.93;;;11.10;99.90;;;;;;5073773;28;20219;-65
2021/09/24 05:51:34;;;;;;;9.88;8.95;;;11.10;99.90;;;;;;5074903;28;20230;-65
2021/09/24 05:54:01;;;;;;;11.45;8.88;;;11.10;99.90;;;;;;5075202;28;20226;-65
2021/09/24 05:56:30;;;;;;;11.52;9.35;;;11.10;99.90;;;;;;5073257;28;20244;-65
2021/09/24 05:58:56;;;;;;;12.60;9.68;;;11.10;99.90;;;;;;5075048;28;20231;-65
2021/09/24 06:01:23;;;;;;;10.93;9.82;;;11.20;99.90;;;;;;5074620;28;20192;-65
2021/09/24 06:03:51;;;;;;;14.88;9.18;;;11.30;99.90;;;;;;5074216;28;20203;-65
2021/09/24 06:06:17;;;;;;;17.60;9.13;;;11.30;99.90;;;;;;5074885;28;20697;-65
2021/09/24 06:08:49;;;;;;;9.95;8.95;;;11.30;99.90;;;;;;5074484;28;20631;-65
2021/09/24 06:11:19;;;;;;;11.02;8.85;;;11.30;99.90;;;;;;5074461;28;20585;-65
2021/09/24 06:13:46;;;;;;;14.25;9.45;;;11.40;99.90;;;;;;5073763;28;20284;-65
2021/09/24 06:16:12;;;;;;;12.57;9.50;;;11.40;99.90;;;;;;5073999;28;20223;-65
2021/09/24 06:18:39;;;;;;;10.85;8.10;;;11.50;99.90;;;;;;5073932;28;20392;-65
2021/09/24 06:21:06;;;;;;;9.90;8.93;;;11.60;99.90;;;;;;5072663;28;20206;-65
2021/09/24 06:23:33;;;;;;;9.38;8.50;;;11.60;99.90;;;;;;5073997;28;20192;-65
2021/09/24 06:25:59;;;;;;;10.77;8.57;;;11.70;99.90;;;;;;5074068;28;20210;-65
2021/09/24 06:28:28;;;;;;;9.75;8.30;;;11.80;99.90;;;;;;5073821;28;20210;-65
2021/09/24 06:30:57;;;;;;;12.25;10.13;;;11.90;99.90;;;;;;5073857;28;20211;-65
2021/09/24 06:33:24;;;;;;;10.60;8.88;;;12.00;99.90;;;;;;5073693;28;20200;-65
2021/09/24 06:35:50;;;;;;;11.57;9.30;;;12.10;99.90;;;;;;5072816;28;20226;-65
2021/09/24 06:38:17;;;;;;;9.90;8.90;;;12.10;99.90;;;;;;5073883;28;20204;-65
2021/09/24 06:40:43;;;;;;;9.40;8.50;;;12.10;99.90;;;;;;5074166;28;20240;-65
2021/09/24 06:43:10;;;;;;;11.95;8.90;;;12.30;99.90;;;;;;5075400;28;20286;-65
2021/09/24 06:45:37;;;;;;;9.98;8.95;;;12.30;99.90;;;;;;5074165;28;20214;-65
2021/09/24 06:48:04;;;;;;;9.63;8.60;;;12.40;99.90;;;;;;5074422;28;20295;-65
2021/09/24 06:50:33;;;;;;;10.25;8.60;;;12.50;99.90;;;;;;5073679;28;20199;-65
2021/09/24 06:53:02;;;;;;;8.95;8.05;;;12.60;99.90;;;;;;5073728;28;20211;-65
2021/09/24 06:55:29;;;;;;;9.23;8.20;;;12.80;99.90;;;;;;5073998;28;20307;-65
2021/09/24 06:57:56;;;;;;;10.30;8.63;;;12.80;99.90;;;;;;5074031;28;20192;-65
2021/09/24 07:00:23;;;;;;;9.20;8.32;;;12.90;99.90;;;;;;5073830;28;20204;-65
2021/09/24 07:02:50;;;;;;;12.00;8.00;;;13.00;99.90;;;;;;5075991;28;20199;-65
2021/09/24 07:05:17;;;;;;;9.32;8.32;;;13.10;99.90;;;;;;5073729;28;20207;-65
2021/09/24 07:07:44;;;;;;;8.68;7.57;;;13.10;99.90;;;;;;5073289;28;20199;-65
2021/09/24 07:10:12;;;;;;;9.05;7.47;;;13.20;99.90;;;;;;5073405;28;20208;-65
2021/09/24 07:12:40;;;;;;;11.35;7.93;;;13.30;99.90;;;;;;5073368;28;20228;-65
2021/09/24 07:15:07;;;;;;;10.60;7.85;;;13.40;99.90;;;;;;5073515;28;20306;-65
2021/09/24 07:17:33;;;;;;;9.83;8.17;;;13.50;99.90;;;;;;5073239;28;20232;-65
2021/09/24 07:20:01;;;;;;;10.38;7.90;;;13.70;99.90;;;;;;5073479;28;21294;-65
2021/09/24 07:22:29;;;;;;;9.00;8.10;;;13.80;99.90;;;;;;5073223;28;20249;-65
2021/09/24 07:24:56;;;;;;;8.23;7.43;;;13.90;99.90;;;;;;5073490;28;20625;-65
2021/09/24 07:27:22;;;;;;;14.87;8.03;;;14.00;99.90;;;;;;5073215;28;20979;-63
2021/09/24 07:29:49;;;;;;;9.27;8.33;;;14.20;99.90;;;;;;5072886;28;20636;-65
2021/09/24 07:32:16;;;;;;;9.23;8.20;;;14.40;99.90;;;;;;5072816;28;20730;-65
2021/09/24 07:34:43;;;;;;;9.60;7.40;;;14.60;99.90;;;;;;5072953;28;20624;-65
2021/09/24 07:37:11;;;;;;;8.10;7.30;;;14.70;99.90;;;;;;5073350;28;20621;-66
2021/09/24 07:39:39;;;;;;;7.30;6.40;;;14.80;99.90;;;;;;5073468;28;20621;-65
2021/09/24 07:42:05;;;;;;;9.40;7.23;;;15.00;99.90;;;;;;5073291;28;20614;-64
2021/09/24 07:44:32;;;;;;;7.90;6.70;;;15.10;99.90;;;;;;5073283;28;20621;-64
2021/09/24 07:46:59;;;;;;;8.63;7.53;;;15.00;99.90;;;;;;5073236;28;20638;-66
2021/09/24 07:49:26;;;;;;;9.83;6.70;;;15.10;99.90;;;;;;5073000;28;20582;-65
2021/09/24 07:51:53;;;;;;;7.10;6.20;;;15.30;99.90;;;;;;5072832;28;20618;-64
2021/09/24 07:54:24;;;;;;;7.63;6.73;;;15.50;99.90;;;;;;5073158;28;20606;-64
2021/09/24 07:56:51;;;;;;;7.57;6.80;;;15.40;99.90;;;;;;5072863;28;20618;-63
2021/09/24 07:59:19;;;;;;;10.43;7.77;;;15.50;99.90;;;;;;5073360;28;20593;-64
2021/09/24 08:01:45;;;;;;;7.90;7.30;;;15.40;99.90;;;;;;5072907;28;20589;-64
2021/09/24 08:04:12;;;;;;;8.67;7.77;;;15.50;99.90;;;;;;5071660;28;20614;-64
2021/09/24 08:06:39;;;;;;;12.73;7.30;;;15.50;99.90;;;;;;5073084;28;20652;-65
2021/09/24 08:09:05;;;;;;;8.40;7.60;;;15.70;99.90;;;;;;5073198;28;20723;-64
2021/09/24 08:11:34;;;;;;;8.80;7.97;;;15.80;99.90;;;;;;5072748;28;20626;-64
2021/09/24 08:14:01;;;;;;;8.30;6.77;;;15.80;99.90;;;;;;5072824;28;20748;-64
2021/09/24 08:16:27;;;;;;;9.73;7.83;;;15.80;99.90;;;;;;5070960;28;20711;-65
2021/09/24 08:18:54;;;;;;;8.67;7.10;;;15.80;99.90;;;;;;5076105;28;20683;-64
2021/09/24 08:21:24;;;;;;;9.23;7.83;;;16.10;99.90;;;;;;5076094;28;21097;-65
2021/09/24 08:23:54;;;;;;;8.20;7.10;;;16.00;99.90;;;;;;5076089;28;21132;-65
2021/09/24 08:26:22;;;;;;;9.33;6.70;;;16.20;99.90;;;;;;5075867;28;20625;-65
2021/09/24 08:28:49;;;;;;;7.77;6.97;;;16.30;99.90;;;;;;5076174;28;20598;-65
2021/09/24 08:31:16;;;;;;;8.40;7.10;;;16.40;99.90;;;;;;5076082;28;20589;-65
2021/09/24 08:33:43;;;;;;;8.40;7.60;;;16.50;99.90;;;;;;5076228;28;20604;-65
2021/09/24 08:36:09;;;;;;;11.53;7.23;;;16.60;99.90;;;;;;5076449;28;21202;-65
2021/09/24 08:38:36;;;;;;;10.43;6.93;;;16.60;99.90;;;;;;5076353;28;20634;-65
2021/09/24 08:41:04;;;;;;;8.90;7.97;;;16.60;99.90;;;;;;5076054;28;20989;-65
2021/09/24 08:43:31;;;;;;;13.53;7.40;;;16.70;99.90;;;;;;5076369;28;20613;-65
2021/09/24 08:45:58;;;;;;;8.83;7.70;;;16.90;99.90;;;;;;5076442;28;20618;-65
2021/09/24 08:48:25;;;;;;;8.10;7.40;;;17.10;99.90;;;;;;5075700;28;20683;-65
2021/09/24 08:50:51;;;;;;;12.80;8.63;;;17.30;99.90;;;;;;5075351;28;20614;-65
2021/09/24 08:53:22;;;;;;;8.00;7.20;;;17.30;99.90;;;;;;5063384;28;21041;-65
2021/09/24 08:55:49;;;;;;;9.60;7.37;;;17.20;99.90;;;;;;5073890;28;20662;-65
2021/09/24 08:58:17;;;;;;;15.47;14.20;;;17.30;99.90;;;;;;5075135;28;20641;-65
2021/09/24 09:00:45;;;;;;;8.70;7.90;;;17.20;99.90;;;;;;5075380;28;20609;-65
2021/09/24 09:03:14;;;;;;;8.00;7.40;;;17.40;99.90;;;;;;5075080;28;20677;-65
2021/09/24 09:05:56;;;;;;;8.43;7.60;;;17.30;99.90;;;;;;5074982;28;20690;-65
2021/09/24 09:08:24;;;;;;;8.67;7.60;;;17.60;99.90;;;;;;5065425;28;20629;-65
2021/09/24 09:11:00;;;;;;;8.73;7.53;;;17.60;99.90;;;;;;5071626;28;20637;-65
2021/09/24 09:13:35;;;;;;;8.33;7.43;;;17.60;99.90;;;;;;5074950;28;20629;-65
2021/09/24 09:16:12;;;;;;;9.03;6.40;;;18.00;99.90;;;;;;5073649;28;20634;-66
2021/09/24 09:18:40;;;;;;;7.37;6.73;;;18.50;99.90;;;;;;5075472;28;20649;-66
2021/09/24 09:21:08;;;;;;;10.30;6.60;;;18.60;99.90;;;;;;5074702;28;20618;-66
2021/09/24 09:23:38;;;;;;;7.50;6.33;;;18.60;99.90;;;;;;5073922;28;20598;-65
2021/09/24 09:26:09;;;;;;;6.53;5.23;;;18.60;99.90;;;;;;5073473;28;20973;-65
2021/09/24 09:28:38;;;;;;;6.30;5.90;;;18.60;99.90;;;;;;5074807;28;20622;-65
2021/09/24 09:31:32;;;;;;;7.57;5.50;;;18.70;99.90;;;;;;5075198;28;20618;-65
2021/09/24 09:34:04;;;;;;;8.37;6.27;;;19.10;99.90;;;;;;5071851;28;20653;-65
2021/09/24 09:36:37;;;;;;;6.03;5.53;;;19.30;99.90;;;;;;5074828;28;21266;-65
2021/09/24 09:39:14;;;;;;;8.70;5.20;;;19.30;99.90;;;;;;5074876;28;20611;-65
2021/09/24 09:41:53;;;;;;;8.80;4.60;;;19.30;99.90;;;;;;5074939;28;20625;-65
2021/09/24 09:44:27;;;;;;;6.90;4.87;;;19.40;99.90;;;;;;5074676;28;20690;-65
2021/09/24 09:46:54;;;;;;;10.60;4.80;;;19.40;99.90;;;;;;5075044;28;20628;-65
2021/09/24 09:49:24;;;;;;;4.80;4.40;;;19.70;99.90;;;;;;5075382;28;20610;-65
2021/09/24 09:52:04;;;;;;;5.17;4.80;;;19.50;99.90;;;;;;5074708;28;20630;-65
2021/09/24 09:54:31;;;;;;;6.53;5.10;;;19.70;99.90;;;;;;5074693;28;20624;-65
2021/09/24 09:57:14;;;;;;;5.00;4.60;;;19.80;99.90;;;;;;5074824;28;20661;-65
2021/09/24 09:59:41;;;;;;;15.70;5.30;;;20.00;99.90;;;;;;5074514;28;20602;-65
2021/09/24 10:02:07;;;;;;;5.63;4.80;;;20.10;99.90;;;;;;5074476;28;20614;-65
2021/09/24 10:04:38;;;;;;;6.80;5.10;;;20.10;99.90;;;;;;5074503;28;20652;-65
2021/09/24 10:07:24;;;;;;;6.50;4.43;;;20.00;99.90;;;;;;5074341;28;20555;-65
2021/09/24 10:10:24;;;;;;;5.17;4.70;;;20.30;99.90;;;;;;5074414;28;20567;-65
2021/09/24 10:12:52;;;;;;;5.50;5.10;;;20.20;99.90;;;;;;5074768;28;20614;-65
2021/09/24 10:15:19;;;;;;;5.37;5.00;;;20.30;99.90;;;;;;5074252;28;21056;-66
2021/09/24 10:17:45;;;;;;;5.27;4.83;;;20.20;99.90;;;;;;5073733;28;20688;-65
2021/09/24 10:20:13;;;;;;;5.70;5.20;;;20.40;99.90;;;;;;5074436;28;20610;-65
2021/09/24 10:22:40;;;;;;;5.60;5.20;;;20.10;99.90;;;;;;5074829;28;20610;-65
2021/09/24 10:25:07;;;;;;;4.93;4.53;;;20.30;99.90;;;;;;5074475;28;20648;-65
2021/09/24 10:27:37;;;;;;;4.83;4.27;;;20.50;99.90;;;;;;5074243;28;20974;-65
2021/09/24 10:30:10;;;;;;;6.93;5.07;;;20.60;99.90;;;;;;5073979;28;20622;-65
2021/09/24 10:32:37;;;;;;;4.73;4.10;;;20.80;99.90;;;;;;5073036;28;20621;-65
2021/09/24 10:35:08;;;;;;;4.93;4.43;;;20.80;99.90;;;;;;5074268;28;20598;-65
2021/09/24 10:37:40;;;;;;;4.37;4.00;;;20.60;99.90;;;;;;5074363;28;21090;-65
2021/09/24 10:40:22;;;;;;;4.47;4.07;;;20.90;99.90;;;;;;5073156;28;20915;-65
2021/09/24 10:42:58;;;;;;;4.60;4.00;;;20.80;99.90;;;;;;5073889;28;20621;-65
2021/09/24 10:45:34;;;;;;;3.90;3.70;;;21.00;99.90;;;;;;5074419;28;20597;-65
2021/09/24 10:48:17;;;;;;;6.00;4.23;;;21.20;99.90;;;;;;5073326;28;20658;-65
2021/09/24 10:50:45;;;;;;;4.53;4.13;;;21.50;99.90;;;;;;5073877;28;20950;-65
2021/09/24 10:53:18;;;;;;;9.87;4.07;;;21.30;99.90;;;;;;5073784;28;20590;-65
2021/09/24 10:55:53;;;;;;;5.07;4.60;;;21.80;99.90;;;;;;5073700;28;20968;-65
2021/09/24 10:58:22;;;;;;;6.97;5.50;;;21.80;99.90;;;;;;5073509;28;21163;-65
2021/09/24 11:00:50;;;;;;;6.13;5.50;;;21.80;99.90;;;;;;5074329;28;20594;-65
2021/09/24 11:03:19;;;;;;;4.30;4.00;;;22.40;99.90;;;;;;5075117;28;20626;-65
2021/09/24 11:06:03;;;;;;;5.20;4.20;;;22.60;99.90;;;;;;5073459;28;20672;-66
2021/09/24 11:08:33;;;;;;;5.20;4.70;;;22.40;99.90;;;;;;5073885;28;20729;-66
2021/09/24 11:11:05;;;;;;;7.97;5.33;;;22.50;99.90;;;;;;5073982;28;20606;-68
2021/09/24 11:13:34;;;;;;;5.43;4.73;;;23.40;99.90;;;;;;5074200;28;20590;-65
2021/09/24 11:16:08;;;;;;;5.23;4.70;;;23.50;99.90;;;;;;5073721;28;20650;-67
2021/09/24 11:18:50;;;;;;;6.10;4.40;;;23.10;99.90;;;;;;5072876;28;20756;-67
2021/09/24 11:21:21;;;;;;;5.00;4.10;;;22.90;99.90;;;;;;5073829;28;20671;-67
2021/09/24 11:23:51;;;;;;;8.60;5.80;;;22.20;99.90;;;;;;5073456;28;20587;-67
2021/09/24 11:26:20;;;;;;;4.87;4.40;;;21.80;99.90;;;;;;5073426;28;20598;-67
2021/09/24 11:29:02;;;;;;;7.10;4.30;;;22.40;99.90;;;;;;5073224;28;20637;-66
2021/09/24 11:31:53;;;;;;;7.83;4.43;;;22.30;99.90;;;;;;5073202;28;20565;-66
2021/09/24 11:34:46;;;;;;;4.57;4.17;;;22.20;99.90;;;;;;5073192;28;20949;-67
2021/09/24 11:37:18;;;;;;;4.60;4.20;;;21.80;99.90;;;;;;5073693;28;20599;-66
2021/09/24 11:39:46;;;;;;;4.40;4.00;;;22.00;99.90;;;;;;5073576;28;20645;-67
2021/09/24 11:42:15;;;;;;;3.80;3.60;;;22.60;99.90;;;;;;5072871;28;20630;-65
2021/09/24 11:44:48;;;;;;;4.53;4.23;;;24.10;99.90;;;;;;5073363;28;20591;-66
2021/09/24 11:47:19;;;;;;;4.33;4.03;;;25.00;99.90;;;;;;5073537;28;21055;-66
2021/09/24 11:49:54;;;;;;;5.10;4.17;;;23.70;99.90;;;;;;5072794;28;21191;-66
2021/09/24 11:52:22;;;;;;;5.20;4.47;;;23.10;99.90;;;;;;5076905;28;20614;-66
2021/09/24 11:54:48;;;;;;;6.23;3.80;;;22.80;99.90;;;;;;5077444;28;20622;-66
2021/09/24 11:57:17;;;;;;;5.63;4.00;;;22.90;99.90;;;;;;5077152;28;20638;-67
2021/09/24 11:59:44;;;;;;;6.10;4.07;;;22.90;99.90;;;;;;5077143;28;20620;-66
2021/09/24 12:02:21;;;;;;;4.50;4.10;;;23.20;99.90;;;;;;5077014;28;20605;-66
2021/09/24 12:05:03;;;;;;;5.23;4.73;;;22.90;99.90;;;;;;5078271;28;20621;-68
2021/09/24 12:07:30;;;;;;;4.70;4.30;;;23.00;99.90;;;;;;5078153;28;20632;-67
2021/09/24 12:10:03;;;;;;;4.80;4.10;;;24.00;99.90;;;;;;5079745;28;21144;-68
2021/09/24 12:12:40;;;;;;;4.97;3.60;;;24.60;99.90;;;;;;5081262;28;20582;-67
2021/09/24 12:15:07;;;;;;;6.00;3.00;;;24.70;99.90;;;;;;5082916;28;20621;-67
2021/09/24 12:17:33;;;;;;;3.97;3.67;;;24.90;99.90;;;;;;5079717;28;20645;-67
2021/09/24 12:20:00;;;;;;;3.47;3.27;;;24.30;99.90;;;;;;5082625;28;20614;-67
2021/09/24 12:22:26;;;;;;;4.40;4.00;;;24.40;99.90;;;;;;5083001;28;20614;-67
2021/09/24 12:24:53;;;;;;;4.57;3.20;;;24.30;99.90;;;;;;5078993;28;20598;-67
2021/09/24 12:27:27;;;;;;;4.60;4.30;;;24.30;99.90;;;;;;5079958;28;20612;-67
2021/09/24 12:29:54;;;;;;;4.30;3.70;;;24.60;99.90;;;;;;5085093;28;20628;-67
2021/09/24 12:32:24;;;;;;;4.83;3.10;;;24.70;99.90;;;;;;5091216;28;21038;-67
2021/09/24 12:35:02;;;;;;;4.00;3.60;;;24.20;99.90;;;;;;5092075;28;20598;-66
2021/09/24 12:37:45;;;;;;;3.77;3.47;;;24.50;99.90;;;;;;5089222;28;20624;-67
2021/09/24 12:40:18;;;;;;;4.03;3.43;;;24.80;99.90;;;;;;5084428;28;20613;-67
2021/09/24 12:42:47;;;;;;;4.10;3.73;;;24.40;99.90;;;;;;5085689;28;20580;-66
2021/09/24 12:45:28;;;;;;;4.60;4.20;;;23.70;99.90;;;;;;5077871;28;20598;-67
2021/09/24 12:48:09;;;;;;;3.30;3.10;;;24.70;99.90;;;;;;5083030;28;21219;-67
2021/09/24 12:50:37;;;;;;;4.33;3.40;;;26.00;99.90;;;;;;5081125;28;21141;-67